Aérodrome :
LOGIN :

S'inscrire | Disclaimer

   EN    FR    IT 

 










Légende :    VFR   VFR Marginal   IFR   IFR Intensif   IFR Très Intensif
Visi : 
Plafond : 
>= 8 km
>= 3000ft
5 à 8 km
1000 à 3000 ft
1500m à 5 km
500 à 1000 ft
800 à 1500m
200 à 500 ft
< 800m
< 200 ft
Symboles :   Orages  Brouillard  Fortes neiges  Fortes précipitations  Vent > 20 kt
SIGMETs :   Divers  Orages  Givrage  Turbulence  Onde Orograph.  Cendres Volcan.






- Altitude de l'aérodrome : 405 ft
- Code IATA : SUJ


LRSM - Satu Mare

DERNIER METAR :
  • 231200Z 11004KT 050V180 CAVOK 27/11 Q1011

METARs EXPIRÉS :
  • 231130Z 00000KT CAVOK 26/11 Q1011
  • 231100Z VRB01KT CAVOK 26/11 Q1012
  • 231030Z VRB02KT CAVOK 25/11 Q1012
  • 231000Z 00000KT CAVOK 26/12 Q1012
  • 230930Z VRB02KT CAVOK 25/12 Q1013

TAF TAF LRSM
Valide du 23 à 12h jusqu'au 23 à 21h UTC


231100Z 2312/2321 14006KT CAVOK



MET'MAP, la Météo Aéronautique d'un coup d'oeil ! - Copyright ORBIFLY Décembre 2007 - Disclaimer

ORBIFLY MET'MAP TEAM :

Programmation & Développement : Alexandra Zaïnal
Sur une idée originale de : Baudouin d'Aumeries
Assistance à la programmation : Marc-Olivier Méhu
Soutien technique & logistique : Manuel Goepfert

Contact : metmap@orbifly.com




SOURCES & CREDITS :

   NOAA